createdAt,value
2018-08-16T00:00:17.932Z,18.20
2018-08-16T00:02:47.310Z,18.13
2018-08-16T00:05:16.246Z,18.10
2018-08-16T00:07:45.689Z,18.07
2018-08-16T00:10:16.657Z,18.04
2018-08-16T00:12:46.954Z,17.99
2018-08-16T00:15:16.898Z,17.94
2018-08-16T00:17:45.952Z,17.93
2018-08-16T00:20:15.408Z,17.86
2018-08-16T00:22:44.729Z,17.83
2018-08-16T00:25:14.004Z,17.81
2018-08-16T00:27:43.291Z,17.79
2018-08-16T00:30:16.853Z,17.76
2018-08-16T00:32:45.953Z,17.76
2018-08-16T00:35:14.876Z,17.74
2018-08-16T00:37:43.929Z,17.71
2018-08-16T00:40:14.848Z,17.66
2018-08-16T00:42:43.817Z,17.59
2018-08-16T00:45:13.155Z,17.55
2018-08-16T00:47:42.415Z,17.51
2018-08-16T00:50:12.758Z,17.49
2018-08-16T00:52:41.492Z,17.47
2018-08-16T00:55:16.359Z,17.46
2018-08-16T00:57:51.237Z,17.44
2018-08-16T01:00:25.002Z,17.42
2018-08-16T01:02:58.241Z,17.38
2018-08-16T01:05:28.510Z,17.34
2018-08-16T01:07:58.914Z,17.33
2018-08-16T01:10:28.823Z,17.32
2018-08-16T01:12:59.135Z,17.34
2018-08-16T01:15:27.955Z,17.34
2018-08-16T01:17:57.088Z,17.34
2018-08-16T01:20:25.879Z,17.31
2018-08-16T01:22:54.739Z,17.30
2018-08-16T01:25:31.266Z,17.26
2018-08-16T01:28:00.349Z,17.21
2018-08-16T01:30:29.334Z,17.19
2018-08-16T01:32:58.108Z,17.22
2018-08-16T01:35:26.825Z,17.24
2018-08-16T01:37:55.539Z,17.24
2018-08-16T01:40:24.554Z,17.24
2018-08-16T01:42:53.291Z,17.21
2018-08-16T01:45:28.993Z,17.18
2018-08-16T01:47:57.732Z,17.14
2018-08-16T01:50:26.676Z,17.12
2018-08-16T01:52:55.745Z,17.08
2018-08-16T01:55:24.539Z,17.04
2018-08-16T01:57:53.336Z,17.01
2018-08-16T02:00:22.143Z,17.00
2018-08-16T02:02:51.126Z,16.98
2018-08-16T02:05:20.322Z,16.96
2018-08-16T02:07:49.044Z,16.97
2018-08-16T02:10:17.801Z,16.97
2018-08-16T02:12:46.778Z,16.97
2018-08-16T02:15:15.538Z,16.95
2018-08-16T02:17:44.631Z,16.97
2018-08-16T02:20:15.132Z,16.95
2018-08-16T02:22:44.986Z,16.95
2018-08-16T02:25:14.016Z,16.94
2018-08-16T02:27:42.779Z,16.94
2018-08-16T02:30:11.743Z,16.91
2018-08-16T02:32:40.633Z,16.90
2018-08-16T02:35:09.919Z,16.86
2018-08-16T02:37:39.178Z,16.86
2018-08-16T02:40:08.834Z,16.85
2018-08-16T02:42:38.153Z,16.83
2018-08-16T02:45:07.239Z,16.81
2018-08-16T02:47:36.326Z,16.79
2018-08-16T02:50:05.125Z,16.79
2018-08-16T02:52:33.888Z,16.81
2018-08-16T02:55:03.235Z,16.82
2018-08-16T02:57:32.390Z,16.80
2018-08-16T03:00:01.196Z,16.76
2018-08-16T03:02:30.281Z,16.73
2018-08-16T03:04:59.298Z,16.69
2018-08-16T03:07:28.341Z,16.67
2018-08-16T03:09:57.130Z,16.66
2018-08-16T03:12:26.716Z,16.63
2018-08-16T03:14:56.409Z,16.62
2018-08-16T03:17:25.597Z,16.59
2018-08-16T03:19:54.402Z,16.59
2018-08-16T03:22:23.231Z,16.58
2018-08-16T03:24:52.223Z,16.56
2018-08-16T03:27:22.750Z,16.55
2018-08-16T03:29:51.532Z,16.52
2018-08-16T03:32:20.955Z,16.52
2018-08-16T03:34:49.707Z,16.52
2018-08-16T03:37:18.527Z,16.53
2018-08-16T03:39:47.560Z,16.54
2018-08-16T03:42:16.317Z,16.55
2018-08-16T03:44:45.361Z,16.55
2018-08-16T03:47:14.649Z,16.55
2018-08-16T03:49:43.792Z,16.56
2018-08-16T03:52:12.811Z,16.55
2018-08-16T03:54:41.837Z,16.52
2018-08-16T03:57:10.850Z,16.51
2018-08-16T03:59:39.839Z,16.49
2018-08-16T04:02:08.875Z,16.46
2018-08-16T04:04:37.776Z,16.46
2018-08-16T04:07:07.090Z,16.46
2018-08-16T04:09:36.655Z,16.45
2018-08-16T04:12:06.535Z,16.41
2018-08-16T04:14:35.269Z,16.40
2018-08-16T04:17:04.447Z,16.38
2018-08-16T04:19:33.496Z,16.36
2018-08-16T04:22:02.791Z,16.35
2018-08-16T04:24:32.218Z,16.35
2018-08-16T04:27:01.741Z,16.35
2018-08-16T04:29:31.121Z,16.33
2018-08-16T04:32:00.155Z,16.32
2018-08-16T04:34:29.253Z,16.32
2018-08-16T04:36:58.220Z,16.31
2018-08-16T04:39:26.982Z,16.34
2018-08-16T04:41:57.145Z,16.33
2018-08-16T04:44:26.035Z,16.32
2018-08-16T04:46:55.041Z,16.32
2018-08-16T04:49:24.469Z,16.31
2018-08-16T04:51:54.309Z,16.32
2018-08-16T04:54:23.426Z,16.34
2018-08-16T04:56:52.602Z,16.35
2018-08-16T04:59:21.461Z,16.38
2018-08-16T05:01:50.868Z,16.38
2018-08-16T05:04:19.888Z,16.39
2018-08-16T05:06:49.314Z,16.43
2018-08-16T05:09:18.801Z,16.45
2018-08-16T05:11:48.405Z,16.47
2018-08-16T05:14:17.728Z,16.50
2018-08-16T05:16:46.938Z,16.53
2018-08-16T05:19:16.553Z,16.56
2018-08-16T05:21:45.543Z,16.57
2018-08-16T05:24:14.585Z,16.62
2018-08-16T05:26:43.706Z,16.65
2018-08-16T05:29:12.738Z,16.70
2018-08-16T05:31:41.606Z,16.72
2018-08-16T05:34:10.642Z,16.76
2018-08-16T05:36:39.404Z,16.79
2018-08-16T05:39:10.759Z,16.85
2018-08-16T05:41:39.943Z,16.88
2018-08-16T05:44:09.116Z,16.93
2018-08-16T05:46:37.949Z,16.95
2018-08-16T05:49:07.023Z,17.00
2018-08-16T05:51:35.778Z,17.07
2018-08-16T05:54:04.908Z,17.13
2018-08-16T05:56:33.910Z,17.19
2018-08-16T05:59:03.011Z,17.27
2018-08-16T06:01:32.717Z,17.37
2018-08-16T06:04:01.716Z,17.43
2018-08-16T06:06:30.698Z,17.52
2018-08-16T06:08:59.413Z,17.58
2018-08-16T06:11:28.498Z,17.66
2018-08-16T06:13:57.225Z,17.75
2018-08-16T06:16:25.981Z,17.86
2018-08-16T06:18:54.761Z,17.94
2018-08-16T06:21:23.469Z,18.05
2018-08-16T06:23:52.210Z,18.09
2018-08-16T06:26:21.263Z,18.19
2018-08-16T06:28:50.008Z,18.29
2018-08-16T06:31:19.084Z,18.40
2018-08-16T06:33:47.818Z,18.51
2018-08-16T06:36:16.681Z,18.62
2018-08-16T06:38:45.597Z,18.73
2018-08-16T06:41:14.309Z,18.87
2018-08-16T06:43:43.440Z,18.94
2018-08-16T06:46:12.185Z,19.05
2018-08-16T06:48:41.018Z,19.15
2018-08-16T06:51:10.317Z,19.26
2018-08-16T06:53:39.199Z,19.38
2018-08-16T06:56:10.549Z,19.51
2018-08-16T06:58:40.300Z,19.67
2018-08-16T07:01:09.785Z,19.74
2018-08-16T07:03:38.887Z,19.81
2018-08-16T07:06:08.056Z,19.91
2018-08-16T07:08:37.568Z,20.04
2018-08-16T07:11:06.586Z,20.18
2018-08-16T07:13:35.369Z,20.28
2018-08-16T07:16:04.119Z,20.41
2018-08-16T07:18:33.027Z,20.52
2018-08-16T07:21:01.797Z,20.63
2018-08-16T07:23:31.114Z,20.74
2018-08-16T07:26:00.181Z,20.87
2018-08-16T07:28:28.971Z,20.93
2018-08-16T07:30:58.119Z,21.02
2018-08-16T07:33:26.866Z,21.06
2018-08-16T07:35:55.976Z,21.22
2018-08-16T07:38:24.786Z,21.32
2018-08-16T07:40:53.859Z,21.49
2018-08-16T07:43:22.607Z,21.65
2018-08-16T07:45:51.768Z,21.74
2018-08-16T07:48:20.381Z,21.91
2018-08-16T07:50:49.414Z,22.04
2018-08-16T07:53:18.225Z,22.13
2018-08-16T07:55:46.994Z,22.12
2018-08-16T07:58:15.782Z,22.08
2018-08-16T08:00:44.529Z,22.11
2018-08-16T08:03:13.885Z,22.20
2018-08-16T08:05:42.651Z,22.40
2018-08-16T08:08:11.682Z,22.75
2018-08-16T08:10:40.531Z,22.88
2018-08-16T08:13:09.283Z,22.82
2018-08-16T08:15:38.105Z,22.92
2018-08-16T08:18:07.014Z,23.01
2018-08-16T08:20:36.493Z,23.10
2018-08-16T08:23:06.422Z,23.17
2018-08-16T08:25:35.410Z,23.16
2018-08-16T08:28:04.123Z,23.26
2018-08-16T08:30:33.231Z,23.25
2018-08-16T08:33:02.037Z,23.24
2018-08-16T08:35:31.103Z,23.32
2018-08-16T08:38:05.800Z,23.41
2018-08-16T08:40:34.789Z,23.60
2018-08-16T08:43:03.687Z,23.60
2018-08-16T08:45:32.431Z,23.61
2018-08-16T08:48:01.163Z,23.69
2018-08-16T08:50:30.401Z,23.84
2018-08-16T08:53:09.907Z,23.98
2018-08-16T08:55:49.712Z,24.00
2018-08-16T08:58:29.618Z,24.06
2018-08-16T09:00:58.748Z,24.22
2018-08-16T09:03:27.730Z,24.35
2018-08-16T09:05:56.844Z,24.58
2018-08-16T09:08:25.784Z,24.69
2018-08-16T09:11:11.029Z,24.74
2018-08-16T09:13:51.772Z,24.81
2018-08-16T09:16:24.816Z,24.97
2018-08-16T09:18:54.293Z,25.17
2018-08-16T09:21:23.050Z,25.26
2018-08-16T09:23:52.127Z,25.32
2018-08-16T09:26:26.165Z,25.42
2018-08-16T09:28:55.219Z,25.43
2018-08-16T09:31:35.093Z,25.56
2018-08-16T09:34:15.494Z,25.73
2018-08-16T09:36:44.595Z,25.80
2018-08-16T09:39:13.598Z,25.92
2018-08-16T09:41:42.934Z,25.96
2018-08-16T09:44:11.953Z,26.07
2018-08-16T09:46:54.610Z,26.22
2018-08-16T09:49:23.374Z,26.43
2018-08-16T09:51:52.136Z,26.57
2018-08-16T09:54:21.983Z,26.54
2018-08-16T09:56:51.362Z,26.48
2018-08-16T09:59:20.527Z,26.60
2018-08-16T10:01:49.348Z,26.66
2018-08-16T10:04:18.161Z,26.87
2018-08-16T10:06:47.167Z,26.95
2018-08-16T10:09:21.729Z,26.83
2018-08-16T10:11:50.547Z,26.86
2018-08-16T10:14:19.745Z,27.06
2018-08-16T10:16:48.906Z,27.33
2018-08-16T10:19:18.186Z,27.43
2018-08-16T10:21:47.192Z,27.38
2018-08-16T10:24:15.917Z,27.56
2018-08-16T10:26:44.964Z,27.62
2018-08-16T10:29:14.109Z,27.54
2018-08-16T10:31:43.210Z,27.49
2018-08-16T10:34:12.164Z,27.71
2018-08-16T10:36:41.293Z,27.60
2018-08-16T10:39:11.860Z,27.60
2018-08-16T10:41:41.198Z,27.78
2018-08-16T10:44:09.967Z,28.03
2018-08-16T10:46:39.015Z,28.30
2018-08-16T10:49:07.916Z,28.63
2018-08-16T10:51:36.970Z,28.90
2018-08-16T10:54:06.115Z,29.11
2018-08-16T10:56:34.823Z,29.21
2018-08-16T10:59:04.260Z,29.35
2018-08-16T11:01:33.060Z,29.22
2018-08-16T11:04:02.038Z,29.40
2018-08-16T11:06:31.109Z,29.54
2018-08-16T11:09:00.095Z,29.52
2018-08-16T11:11:28.899Z,29.32
2018-08-16T11:13:58.150Z,29.21
2018-08-16T11:16:27.350Z,28.98
2018-08-16T11:18:56.272Z,29.06
2018-08-16T11:21:25.245Z,28.72
2018-08-16T11:23:54.298Z,28.75
2018-08-16T11:26:23.748Z,28.94
2018-08-16T11:28:52.520Z,28.90
2018-08-16T11:31:21.642Z,28.87
2018-08-16T11:33:50.377Z,28.88
2018-08-16T11:36:19.620Z,28.79
2018-08-16T11:38:48.371Z,28.94
2018-08-16T11:41:17.096Z,29.14
2018-08-16T11:43:46.068Z,29.13
2018-08-16T11:46:15.164Z,29.21
2018-08-16T11:48:43.947Z,28.99
2018-08-16T11:51:12.658Z,28.68
2018-08-16T11:53:41.732Z,28.71
2018-08-16T11:56:10.818Z,29.07
2018-08-16T11:58:39.630Z,29.12
2018-08-16T12:01:08.890Z,28.99
2018-08-16T12:03:38.147Z,28.80
2018-08-16T12:06:07.046Z,28.57
2018-08-16T12:08:35.829Z,28.45
2018-08-16T12:11:04.643Z,28.53
2018-08-16T12:13:33.655Z,28.50
2018-08-16T12:16:02.946Z,28.64
2018-08-16T12:18:31.720Z,28.97
2018-08-16T12:21:00.538Z,29.29
2018-08-16T12:23:29.343Z,29.41
2018-08-16T12:25:58.336Z,29.70
2018-08-16T12:28:27.108Z,29.85
2018-08-16T12:30:55.910Z,30.13
2018-08-16T12:33:25.012Z,30.18
2018-08-16T12:36:57.923Z,29.83
2018-08-16T12:39:27.370Z,29.97
2018-08-16T12:41:56.492Z,30.12
2018-08-16T12:44:25.526Z,30.27
2018-08-16T12:46:54.482Z,30.47
2018-08-16T12:49:23.564Z,30.60
2018-08-16T12:51:52.567Z,30.44
2018-08-16T12:54:21.321Z,30.20
2018-08-16T12:56:50.042Z,29.80
2018-08-16T12:59:19.012Z,29.50
2018-08-16T13:01:48.335Z,29.40
2018-08-16T13:04:17.049Z,29.21
2018-08-16T13:06:46.035Z,29.25
2018-08-16T13:09:14.829Z,29.10
2018-08-16T13:11:43.618Z,28.95
2018-08-16T13:14:12.591Z,29.00
2018-08-16T13:16:41.813Z,29.22
2018-08-16T13:19:10.955Z,29.21
2018-08-16T13:21:39.600Z,29.36
2018-08-16T13:24:08.695Z,29.49
2018-08-16T13:26:38.070Z,29.30
2018-08-16T13:29:06.889Z,29.17
2018-08-16T13:31:36.165Z,29.24
2018-08-16T13:34:05.290Z,29.44
2018-08-16T13:36:35.241Z,29.64
2018-08-16T13:39:06.730Z,29.65
2018-08-16T13:41:35.793Z,29.62
2018-08-16T13:44:04.713Z,29.77
2018-08-16T13:46:33.444Z,30.06
2018-08-16T13:49:02.754Z,30.28
2018-08-16T13:51:31.650Z,30.45
2018-08-16T13:54:00.901Z,30.45
2018-08-16T13:56:30.943Z,30.56
2018-08-16T13:59:00.147Z,30.56
2018-08-16T14:01:29.345Z,30.42
2018-08-16T14:03:59.747Z,30.48
2018-08-16T14:06:31.684Z,30.58
2018-08-16T14:09:02.208Z,30.68
2018-08-16T14:11:33.135Z,30.49
2018-08-16T14:14:03.222Z,29.97
2018-08-16T14:16:33.781Z,29.74
2018-08-16T14:19:02.824Z,29.63
2018-08-16T14:21:33.414Z,29.56
2018-08-16T14:24:04.513Z,29.93
2018-08-16T14:26:33.338Z,30.02
2018-08-16T14:29:03.310Z,29.93
2018-08-16T14:31:32.767Z,29.61
2018-08-16T14:34:01.778Z,29.48
2018-08-16T14:36:30.879Z,29.41
2018-08-16T14:38:59.656Z,29.34
2018-08-16T14:41:29.389Z,29.00
2018-08-16T14:43:58.633Z,29.05
2018-08-16T14:46:27.685Z,29.00
2018-08-16T14:48:56.465Z,28.87
2018-08-16T14:51:28.013Z,28.45
2018-08-16T14:53:58.413Z,28.28
2018-08-16T14:56:27.480Z,28.20
2018-08-16T14:58:56.614Z,28.13
2018-08-16T15:01:25.655Z,28.16
2018-08-16T15:03:54.913Z,28.30
2018-08-16T15:06:23.749Z,28.33
2018-08-16T15:08:52.482Z,28.14
2018-08-16T15:11:21.598Z,27.95
2018-08-16T15:13:50.349Z,27.92
2018-08-16T15:16:19.361Z,27.88
2018-08-16T15:18:48.186Z,27.78
2018-08-16T15:21:17.564Z,27.65
2018-08-16T15:23:46.383Z,27.60
2018-08-16T15:26:16.283Z,27.38
2018-08-16T15:28:45.347Z,27.24
2018-08-16T15:31:14.434Z,27.17
2018-08-16T15:33:43.190Z,27.17
2018-08-16T15:36:12.598Z,27.09
2018-08-16T15:38:41.306Z,27.06
2018-08-16T15:41:10.154Z,27.08
2018-08-16T15:43:40.211Z,26.92
2018-08-16T15:46:09.091Z,26.89
2018-08-16T15:48:37.843Z,26.87
2018-08-16T15:51:07.023Z,26.76
2018-08-16T15:53:35.749Z,26.72
2018-08-16T15:56:04.528Z,26.58
2018-08-16T15:58:33.273Z,26.47
2018-08-16T16:01:02.248Z,26.46
2018-08-16T16:03:31.000Z,26.49
2018-08-16T16:06:00.141Z,26.38
2018-08-16T16:08:28.912Z,26.36
2018-08-16T16:10:57.689Z,26.17
2018-08-16T16:13:26.473Z,25.98
2018-08-16T16:15:55.188Z,25.87
2018-08-16T16:18:24.763Z,25.74
2018-08-16T16:20:53.842Z,25.64
2018-08-16T16:23:22.953Z,25.60
2018-08-16T16:25:51.990Z,25.60
2018-08-16T16:28:21.098Z,25.51
2018-08-16T16:30:49.955Z,25.33
2018-08-16T16:33:18.947Z,25.24
2018-08-16T16:35:48.241Z,25.23
2018-08-16T16:38:17.218Z,25.20
2018-08-16T16:40:46.195Z,25.16
2018-08-16T16:43:15.398Z,25.08
2018-08-16T16:45:44.365Z,25.11
2018-08-16T16:48:13.095Z,25.12
2018-08-16T16:50:41.835Z,25.14
2018-08-16T16:53:11.082Z,25.09
2018-08-16T16:55:40.743Z,24.96
2018-08-16T16:58:09.713Z,24.83
2018-08-16T17:00:38.750Z,24.83
2018-08-16T17:03:07.810Z,24.86
2018-08-16T17:05:36.791Z,24.83
2018-08-16T17:08:05.567Z,24.89
2018-08-16T17:10:34.367Z,24.98
2018-08-16T17:13:03.045Z,25.04
2018-08-16T17:15:31.834Z,25.04
2018-08-16T17:18:00.761Z,25.06
2018-08-16T17:20:29.712Z,25.08
2018-08-16T17:22:58.565Z,25.04
2018-08-16T17:25:27.265Z,25.03
2018-08-16T17:27:57.055Z,24.99
2018-08-16T17:30:26.442Z,24.89
2018-08-16T17:32:55.218Z,24.84
2018-08-16T17:35:25.030Z,24.82
2018-08-16T17:37:54.123Z,24.79
2018-08-16T17:40:23.325Z,24.74
2018-08-16T17:42:52.015Z,24.63
2018-08-16T17:45:20.725Z,24.58
2018-08-16T17:47:49.526Z,24.53
2018-08-16T17:50:18.862Z,24.56
2018-08-16T17:52:47.840Z,24.54
2018-08-16T17:55:17.144Z,24.54
2018-08-16T17:57:46.179Z,24.52
2018-08-16T18:00:15.805Z,24.51
2018-08-16T18:02:44.822Z,24.48
2018-08-16T18:05:13.548Z,24.44
2018-08-16T18:07:42.606Z,24.39
2018-08-16T18:10:11.371Z,24.37
2018-08-16T18:12:40.479Z,24.37
2018-08-16T18:15:10.741Z,24.27
2018-08-16T18:17:39.536Z,24.18
2018-08-16T18:20:08.920Z,24.12
2018-08-16T18:22:38.423Z,24.11
2018-08-16T18:25:08.258Z,24.05
2018-08-16T18:27:37.362Z,23.99
2018-08-16T18:30:07.579Z,23.94
2018-08-16T18:32:36.364Z,23.87
2018-08-16T18:35:05.528Z,23.73
2018-08-16T18:37:34.270Z,23.66
2018-08-16T18:40:03.000Z,23.62
2018-08-16T18:42:31.782Z,23.59
2018-08-16T18:45:01.043Z,23.60
2018-08-16T18:47:29.917Z,23.60
2018-08-16T18:49:58.702Z,23.56
2018-08-16T18:52:27.964Z,23.43
2018-08-16T18:54:57.053Z,23.31
2018-08-16T18:57:25.851Z,23.26
2018-08-16T18:59:54.966Z,23.19
2018-08-16T19:02:25.527Z,23.11
2018-08-16T19:04:54.978Z,22.75
2018-08-16T19:07:23.829Z,22.43
2018-08-16T19:09:52.570Z,22.19
2018-08-16T19:12:21.837Z,21.95
2018-08-16T19:14:50.550Z,21.77
2018-08-16T19:17:19.366Z,21.67
2018-08-16T19:19:48.090Z,21.51
2018-08-16T19:22:16.854Z,21.33
2018-08-16T19:24:45.694Z,21.19
2018-08-16T19:27:17.221Z,21.05
2018-08-16T19:29:58.628Z,20.95
2018-08-16T19:32:27.756Z,20.76
2018-08-16T19:34:56.821Z,20.62
2018-08-16T19:37:26.246Z,20.53
2018-08-16T19:39:55.000Z,20.51
2018-08-16T19:42:23.720Z,20.44
2018-08-16T19:44:52.610Z,20.36
2018-08-16T19:47:21.338Z,20.37
2018-08-16T19:49:50.365Z,20.44
2018-08-16T19:52:21.883Z,20.54
2018-08-16T19:54:51.098Z,20.62
2018-08-16T19:57:20.487Z,20.63
2018-08-16T19:59:49.241Z,20.63
2018-08-16T20:02:18.474Z,20.64
2018-08-16T20:04:47.703Z,20.64
2018-08-16T20:07:16.418Z,20.64
2018-08-16T20:09:45.563Z,20.61
2018-08-16T20:12:14.597Z,20.58
2018-08-16T20:14:43.308Z,20.53
2018-08-16T20:17:12.509Z,20.48
2018-08-16T20:19:41.288Z,20.45
2018-08-16T20:22:18.488Z,20.43
2018-08-16T20:24:47.928Z,20.42
2018-08-16T20:27:17.183Z,20.42
2018-08-16T20:29:47.706Z,20.43
2018-08-16T20:32:16.959Z,20.37
2018-08-16T20:34:45.842Z,20.33
2018-08-16T20:37:14.975Z,20.29
2018-08-16T20:39:43.693Z,20.28
2018-08-16T20:42:12.498Z,20.27
2018-08-16T20:44:41.462Z,20.27
2018-08-16T20:47:10.431Z,20.25
2018-08-16T20:49:39.436Z,20.22
2018-08-16T20:52:08.272Z,20.17
2018-08-16T20:54:37.090Z,20.13
2018-08-16T20:57:06.176Z,20.09
2018-08-16T20:59:35.842Z,19.98
2018-08-16T21:02:07.172Z,19.90
2018-08-16T21:04:37.041Z,19.82
2018-08-16T21:07:08.687Z,19.77
2018-08-16T21:09:37.907Z,19.74
2018-08-16T21:12:06.817Z,19.73
2018-08-16T21:14:35.889Z,19.71
2018-08-16T21:17:04.868Z,19.64
2018-08-16T21:19:33.648Z,19.59
2018-08-16T21:22:02.753Z,19.56
2018-08-16T21:24:34.553Z,19.52
2018-08-16T21:27:03.661Z,19.44
2018-08-16T21:29:33.140Z,19.40
2018-08-16T21:32:02.111Z,19.37
2018-08-16T21:34:31.278Z,19.33
2018-08-16T21:37:00.256Z,19.30
2018-08-16T21:39:29.130Z,19.27
2018-08-16T21:42:04.283Z,19.25
2018-08-16T21:44:33.734Z,19.23
2018-08-16T21:47:02.968Z,19.19
2018-08-16T21:49:33.129Z,19.16
2018-08-16T21:52:01.870Z,19.18
2018-08-16T21:54:40.676Z,19.14
2018-08-16T21:57:10.215Z,19.13
2018-08-16T21:59:39.545Z,19.10
2018-08-16T22:02:08.937Z,19.06
2018-08-16T22:04:39.503Z,19.05
2018-08-16T22:07:16.310Z,19.02
2018-08-16T22:09:45.591Z,18.97
2018-08-16T22:12:14.335Z,18.93
2018-08-16T22:14:43.451Z,18.91
2018-08-16T22:17:12.371Z,18.88
2018-08-16T22:19:41.583Z,18.84
2018-08-16T22:22:10.455Z,18.81
2018-08-16T22:24:39.670Z,18.79
2018-08-16T22:27:08.559Z,18.76
2018-08-16T22:29:37.763Z,18.72
2018-08-16T22:32:07.554Z,18.69
2018-08-16T22:34:36.842Z,18.66
2018-08-16T22:37:06.137Z,18.62
2018-08-16T22:39:34.920Z,18.59
2018-08-16T22:42:03.748Z,18.53
2018-08-16T22:44:34.451Z,18.50
2018-08-16T22:47:07.058Z,18.49
2018-08-16T22:49:40.667Z,18.46
2018-08-16T22:52:11.375Z,18.43
2018-08-16T22:54:41.913Z,18.39
2018-08-16T22:57:12.658Z,18.37
2018-08-16T22:59:43.460Z,18.33
2018-08-16T23:02:15.620Z,18.29
2018-08-16T23:04:46.112Z,18.26
2018-08-16T23:07:17.321Z,18.23
2018-08-16T23:09:46.278Z,18.22
2018-08-16T23:12:15.207Z,18.18
2018-08-16T23:14:44.397Z,18.14
2018-08-16T23:17:13.288Z,18.13
2018-08-16T23:19:42.245Z,18.09
2018-08-16T23:22:11.020Z,18.09
2018-08-16T23:24:40.251Z,18.07
2018-08-16T23:27:09.581Z,18.05
2018-08-16T23:29:38.480Z,18.01
2018-08-16T23:32:07.629Z,17.97
2018-08-16T23:34:36.753Z,17.94
2018-08-16T23:37:06.824Z,17.92
2018-08-16T23:39:36.330Z,17.88
2018-08-16T23:42:05.395Z,17.84
2018-08-16T23:44:34.178Z,17.78
2018-08-16T23:47:03.453Z,17.70
2018-08-16T23:49:32.433Z,17.57
2018-08-16T23:52:01.246Z,17.50
2018-08-16T23:54:30.082Z,17.45
2018-08-16T23:56:59.065Z,17.39
2018-08-16T23:59:27.850Z,17.31
